FR-0217 weather

Centre Hospitalier Heliport
Sallanches, Auvergne-Rhône-Alpes, France

Public forecast

Using degrees Celsius for public forecast. Weather courtesy of forecast.io.

Closest aviation weather report (METAR) to Centre Hospitalier Heliport

Closest report is Annecy-Haute-Savoie-Mont Blanc Airport, 22.4 nm (41.4 km) W. Retrieved 2020/01/19 04:30 UTC (0 seconds ago):

LFLP 190430Z AUTO 05006KT 020V080 CAVOK 00/M02 Q1027 NOSIG

Closest aviation forecast (TAF) to Centre Hospitalier Heliport

Closest forecast is Annecy-Haute-Savoie-Mont Blanc Airport, 22.4 nm (41.4 km) W. Retrieved 2020-01-19 03:00 UTC (1 hour ago):

TAF LFLP 190200Z 1903/2003 02010KT CAVOK TEMPO 1910/1916 02015G30KT 9999 BKN035